createdAt,value
2019-03-18T00:00:33.640Z,20.75
2019-03-18T00:03:01.845Z,20.76
2019-03-18T00:05:30.409Z,20.73
2019-03-18T00:07:58.724Z,20.76
2019-03-18T00:10:26.967Z,20.78
2019-03-18T00:12:56.814Z,20.77
2019-03-18T00:15:25.043Z,20.74
2019-03-18T00:17:53.338Z,20.72
2019-03-18T00:20:21.897Z,20.71
2019-03-18T00:22:50.096Z,20.70
2019-03-18T00:25:18.652Z,20.70
2019-03-18T00:27:47.134Z,20.70
2019-03-18T00:30:17.459Z,20.68
2019-03-18T00:32:47.297Z,20.68
2019-03-18T00:35:15.528Z,20.68
2019-03-18T00:37:43.734Z,20.69
2019-03-18T00:40:16.182Z,20.69
2019-03-18T00:42:44.407Z,20.69
2019-03-18T00:45:15.034Z,20.69
2019-03-18T00:47:42.996Z,20.70
2019-03-18T00:50:13.141Z,20.70
2019-03-18T00:52:41.356Z,20.69
2019-03-18T00:55:10.052Z,20.68
2019-03-18T00:57:38.272Z,20.67
2019-03-18T01:00:12.943Z,20.67
2019-03-18T01:02:41.628Z,20.68
2019-03-18T01:05:09.853Z,20.68
2019-03-18T01:07:38.066Z,20.67
2019-03-18T01:10:09.840Z,20.68
2019-03-18T01:12:38.330Z,20.68
2019-03-18T01:15:08.565Z,20.68
2019-03-18T01:17:36.768Z,20.68
2019-03-18T01:20:06.940Z,20.69
2019-03-18T01:22:35.227Z,20.70
2019-03-18T01:25:03.621Z,20.70
2019-03-18T01:27:31.834Z,20.71
2019-03-18T01:30:00.055Z,20.70
2019-03-18T01:32:28.682Z,20.70
2019-03-18T01:34:57.212Z,20.70
2019-03-18T01:37:25.420Z,20.71
2019-03-18T01:39:53.968Z,20.72
2019-03-18T01:42:22.183Z,20.72
2019-03-18T01:44:50.390Z,20.71
2019-03-18T01:47:18.607Z,20.72
2019-03-18T01:49:46.810Z,20.71
2019-03-18T01:52:15.340Z,20.71
2019-03-18T01:54:43.544Z,20.72
2019-03-18T01:57:11.793Z,20.71
2019-03-18T01:59:40.001Z,20.71
2019-03-18T02:02:08.548Z,20.73
2019-03-18T02:04:37.008Z,20.73
2019-03-18T02:07:05.213Z,20.73
2019-03-18T02:09:33.457Z,20.72
2019-03-18T02:12:01.702Z,20.73
2019-03-18T02:14:29.917Z,20.73
2019-03-18T02:16:58.139Z,20.72
2019-03-18T02:19:26.348Z,20.72
2019-03-18T02:21:54.572Z,20.73
2019-03-18T02:24:22.792Z,20.73
2019-03-18T02:26:51.006Z,20.75
2019-03-18T02:29:19.311Z,20.74
2019-03-18T02:31:47.544Z,20.76
2019-03-18T02:34:15.752Z,20.75
2019-03-18T02:36:43.964Z,20.75
2019-03-18T02:39:12.177Z,20.73
2019-03-18T02:41:40.761Z,20.73
2019-03-18T02:44:08.969Z,20.72
2019-03-18T02:46:37.188Z,20.71
2019-03-18T02:49:05.392Z,20.71
2019-03-18T02:51:33.612Z,20.71
2019-03-18T02:54:01.829Z,20.70
2019-03-18T02:56:30.088Z,20.71
2019-03-18T02:58:58.270Z,20.72
2019-03-18T03:01:26.490Z,20.72
2019-03-18T03:03:54.700Z,20.71
2019-03-18T03:06:22.923Z,20.70
2019-03-18T03:08:51.128Z,20.71
2019-03-18T03:11:19.671Z,20.71
2019-03-18T03:13:47.867Z,20.69
2019-03-18T03:16:26.586Z,20.72
2019-03-18T03:18:46.348Z,20.72
2019-03-18T03:21:14.551Z,20.73
2019-03-18T03:23:42.758Z,20.71
2019-03-18T03:26:10.968Z,20.70
2019-03-18T03:28:39.459Z,20.70
2019-03-18T03:31:07.655Z,20.71
2019-03-18T03:33:35.860Z,20.71
2019-03-18T03:36:04.379Z,20.72
2019-03-18T03:38:32.860Z,20.71
2019-03-18T03:41:01.059Z,20.71
2019-03-18T03:43:29.603Z,20.71
2019-03-18T03:45:58.102Z,20.70
2019-03-18T03:48:26.318Z,20.71
2019-03-18T03:50:54.528Z,20.72
2019-03-18T03:53:22.746Z,20.71
2019-03-18T03:55:50.956Z,20.73
2019-03-18T03:58:19.143Z,20.71
2019-03-18T04:00:47.634Z,20.71
2019-03-18T04:03:15.847Z,20.70
2019-03-18T04:05:44.053Z,20.71
2019-03-18T04:08:12.256Z,20.72
2019-03-18T04:10:40.455Z,20.71
2019-03-18T04:13:08.660Z,20.72
2019-03-18T04:15:37.192Z,20.72
2019-03-18T04:18:05.389Z,20.73
2019-03-18T04:20:33.963Z,20.73
2019-03-18T04:23:02.157Z,20.73
2019-03-18T04:25:30.354Z,20.72
2019-03-18T04:27:58.882Z,20.72
2019-03-18T04:30:27.185Z,20.73
2019-03-18T04:32:55.744Z,20.72
2019-03-18T04:35:23.942Z,20.70
2019-03-18T04:37:52.161Z,20.71
2019-03-18T04:40:20.352Z,20.72
2019-03-18T04:42:48.838Z,20.72
2019-03-18T04:45:17.041Z,20.71
2019-03-18T04:47:45.247Z,20.71
2019-03-18T04:50:13.619Z,20.72
2019-03-18T04:52:41.834Z,20.73
2019-03-18T04:55:10.035Z,20.73
2019-03-18T04:57:38.244Z,20.72
2019-03-18T05:00:09.685Z,20.73
2019-03-18T05:02:38.222Z,20.72
2019-03-18T05:05:06.909Z,20.72
2019-03-18T05:07:35.391Z,20.74
2019-03-18T05:10:05.816Z,20.74
2019-03-18T05:12:34.029Z,20.75
2019-03-18T05:15:02.221Z,20.75
2019-03-18T05:17:30.436Z,20.76
2019-03-18T05:19:58.926Z,20.74
2019-03-18T05:22:27.133Z,20.76
2019-03-18T05:24:55.414Z,20.75
2019-03-18T05:27:23.898Z,20.76
2019-03-18T05:29:52.559Z,20.75
2019-03-18T05:32:20.770Z,20.75
2019-03-18T05:34:49.294Z,20.75
2019-03-18T05:37:17.522Z,20.75
2019-03-18T05:39:46.049Z,20.76
2019-03-18T05:42:14.247Z,20.75
2019-03-18T05:44:42.712Z,20.75
2019-03-18T05:47:10.909Z,20.76
2019-03-18T05:49:39.473Z,20.76
2019-03-18T05:52:07.666Z,20.77
2019-03-18T05:54:35.871Z,20.77
2019-03-18T05:57:04.066Z,20.76
2019-03-18T05:59:32.563Z,20.76
2019-03-18T06:02:02.403Z,20.76
2019-03-18T06:04:30.610Z,20.76
2019-03-18T06:06:58.807Z,20.76
2019-03-18T06:09:27.013Z,20.76
2019-03-18T06:11:56.839Z,20.76
2019-03-18T06:14:25.052Z,20.77
2019-03-18T06:16:53.253Z,20.77
2019-03-18T06:19:21.457Z,20.77
2019-03-18T06:21:49.705Z,20.78
2019-03-18T06:24:19.836Z,20.77
2019-03-18T06:26:48.311Z,20.78
2019-03-18T06:29:16.536Z,20.78
2019-03-18T06:31:44.974Z,20.79
2019-03-18T06:34:13.181Z,20.80
2019-03-18T06:36:41.394Z,20.78
2019-03-18T06:39:09.897Z,20.79
2019-03-18T06:41:38.092Z,20.80
2019-03-18T06:44:08.289Z,20.81
2019-03-18T06:46:36.509Z,20.80
2019-03-18T06:49:05.051Z,20.81
2019-03-18T06:51:33.249Z,20.80
2019-03-18T06:54:01.805Z,20.80
2019-03-18T06:56:30.049Z,20.81
2019-03-18T06:58:58.258Z,20.79
2019-03-18T07:01:26.462Z,20.80
2019-03-18T07:03:54.677Z,20.80
2019-03-18T07:06:22.885Z,20.82
2019-03-18T07:08:51.096Z,20.82
2019-03-18T07:11:19.287Z,20.83
2019-03-18T07:13:47.505Z,20.83
2019-03-18T07:16:15.700Z,20.84
2019-03-18T07:18:43.919Z,20.84
2019-03-18T07:21:14.604Z,20.84
2019-03-18T07:23:42.070Z,20.85
2019-03-18T07:26:10.289Z,20.85
2019-03-18T07:28:38.799Z,20.86
2019-03-18T07:31:07.003Z,20.86
2019-03-18T07:33:35.558Z,20.86
2019-03-18T07:36:03.754Z,20.86
2019-03-18T07:38:31.965Z,20.86
2019-03-18T07:41:00.494Z,20.86
2019-03-18T07:43:29.062Z,20.86
2019-03-18T07:45:57.266Z,20.86
2019-03-18T07:48:30.738Z,20.87
2019-03-18T07:50:55.403Z,20.87
2019-03-18T07:53:23.605Z,20.90
2019-03-18T07:55:52.102Z,20.93
2019-03-18T07:58:22.433Z,20.95
2019-03-18T08:00:50.407Z,20.98
2019-03-18T08:03:18.716Z,21.00
2019-03-18T08:05:46.923Z,21.00
2019-03-18T08:08:15.293Z,21.01
2019-03-18T08:10:43.798Z,21.03
2019-03-18T08:13:12.290Z,21.05
2019-03-18T08:15:40.490Z,21.03
2019-03-18T08:18:08.688Z,21.05
2019-03-18T08:20:38.533Z,21.08
2019-03-18T08:23:06.729Z,21.09
2019-03-18T08:25:35.193Z,21.09
2019-03-18T08:28:03.394Z,21.09
2019-03-18T08:30:31.589Z,21.11
2019-03-18T08:32:59.801Z,21.15
2019-03-18T08:35:28.004Z,21.20
2019-03-18T08:37:56.201Z,21.25
2019-03-18T08:40:24.394Z,21.27
2019-03-18T08:42:52.589Z,21.28
2019-03-18T08:45:20.795Z,21.28
2019-03-18T08:47:49.279Z,21.30
2019-03-18T08:50:17.478Z,21.32
2019-03-18T08:52:45.704Z,21.34
2019-03-18T08:55:13.873Z,21.36
2019-03-18T08:57:42.373Z,21.37
2019-03-18T09:00:12.877Z,21.37
2019-03-18T09:02:41.079Z,21.37
2019-03-18T09:05:09.851Z,21.37
2019-03-18T09:07:38.059Z,21.38
2019-03-18T09:10:15.949Z,21.42
2019-03-18T09:12:44.144Z,21.45
2019-03-18T09:15:12.700Z,21.49
2019-03-18T09:17:40.947Z,21.54
2019-03-18T09:20:13.600Z,21.54
2019-03-18T09:22:41.800Z,21.56
2019-03-18T09:25:11.664Z,21.55
2019-03-18T09:27:39.852Z,21.53
2019-03-18T09:30:11.603Z,21.56
2019-03-18T09:32:39.803Z,21.67
2019-03-18T09:35:08.013Z,21.74
2019-03-18T09:37:36.257Z,21.77
2019-03-18T09:40:07.484Z,21.79
2019-03-18T09:42:35.677Z,21.78
2019-03-18T09:45:06.384Z,21.75
2019-03-18T09:47:34.583Z,21.71
2019-03-18T09:50:03.204Z,21.69
2019-03-18T09:52:31.403Z,21.64
2019-03-18T09:54:59.628Z,21.63
2019-03-18T09:57:27.831Z,21.63
2019-03-18T09:59:56.304Z,21.64
2019-03-18T10:02:24.561Z,21.67
2019-03-18T10:04:52.742Z,21.68
2019-03-18T10:07:21.039Z,21.72
2019-03-18T10:09:49.242Z,21.70
2019-03-18T10:12:17.438Z,21.68
2019-03-18T10:14:45.659Z,21.68
2019-03-18T10:17:13.959Z,21.67
2019-03-18T10:19:42.511Z,21.66
2019-03-18T10:22:10.999Z,21.65
2019-03-18T10:24:39.587Z,21.69
2019-03-18T10:27:07.790Z,21.71
2019-03-18T10:29:35.992Z,21.72
2019-03-18T10:32:04.210Z,21.88
2019-03-18T10:34:32.411Z,22.02
2019-03-18T10:37:00.679Z,22.11
2019-03-18T10:39:28.886Z,22.23
2019-03-18T10:41:57.459Z,22.25
2019-03-18T10:44:25.692Z,22.22
2019-03-18T10:46:53.899Z,22.16
2019-03-18T10:49:22.136Z,22.12
2019-03-18T10:51:50.351Z,22.08
2019-03-18T10:54:30.004Z,22.05
2019-03-18T10:56:50.150Z,22.01
2019-03-18T10:59:18.320Z,22.01
2019-03-18T11:01:46.522Z,22.00
2019-03-18T11:04:14.724Z,22.04
2019-03-18T11:06:42.928Z,22.16
2019-03-18T11:09:11.500Z,22.27
2019-03-18T11:11:39.704Z,22.38
2019-03-18T11:14:07.904Z,22.47
2019-03-18T11:16:36.099Z,22.56
2019-03-18T11:19:04.303Z,22.64
2019-03-18T11:21:32.505Z,22.66
2019-03-18T11:24:00.700Z,22.71
2019-03-18T11:26:28.907Z,22.77
2019-03-18T11:28:57.108Z,22.82
2019-03-18T11:31:25.721Z,22.87
2019-03-18T11:33:54.981Z,22.91
2019-03-18T11:36:23.178Z,22.87
2019-03-18T11:38:51.730Z,22.90
2019-03-18T11:41:19.933Z,23.02
2019-03-18T11:43:48.387Z,23.01
2019-03-18T11:46:16.663Z,23.02
2019-03-18T11:48:44.961Z,23.02
2019-03-18T11:51:13.168Z,22.98
2019-03-18T11:53:41.658Z,22.93
2019-03-18T11:56:09.863Z,22.89
2019-03-18T11:58:38.062Z,22.82
2019-03-18T12:01:07.978Z,22.77
2019-03-18T12:03:36.182Z,22.71
2019-03-18T12:06:04.705Z,22.68
2019-03-18T12:08:32.933Z,22.63
2019-03-18T12:11:01.391Z,22.59
2019-03-18T12:13:29.841Z,22.54
2019-03-18T12:15:58.041Z,22.51
2019-03-18T12:18:26.248Z,22.48
2019-03-18T12:20:54.454Z,22.46
2019-03-18T12:23:22.659Z,22.44
2019-03-18T12:25:50.859Z,22.41
2019-03-18T12:28:19.138Z,22.41
2019-03-18T12:30:47.334Z,22.41
2019-03-18T12:33:15.845Z,22.43
2019-03-18T12:35:44.328Z,22.43
2019-03-18T12:38:12.810Z,22.48
2019-03-18T12:40:41.010Z,22.46
2019-03-18T12:43:09.568Z,22.46
2019-03-18T12:45:37.768Z,22.48
2019-03-18T12:48:05.980Z,22.49
2019-03-18T12:50:54.429Z,22.45
2019-03-18T12:53:05.828Z,22.45
2019-03-18T12:55:34.036Z,22.47
2019-03-18T12:58:02.276Z,22.49
2019-03-18T13:00:32.697Z,22.49
2019-03-18T13:03:00.906Z,22.55
2019-03-18T13:05:29.379Z,22.65
2019-03-18T13:07:57.593Z,22.74
2019-03-18T13:10:25.859Z,22.84
2019-03-18T13:12:54.066Z,22.95
2019-03-18T13:15:22.597Z,23.05
2019-03-18T13:17:50.792Z,23.14
2019-03-18T13:20:21.529Z,23.24
2019-03-18T13:22:49.962Z,23.31
2019-03-18T13:25:18.175Z,23.34
2019-03-18T13:27:46.374Z,23.38
2019-03-18T13:30:26.367Z,23.37
2019-03-18T13:32:54.568Z,23.39
2019-03-18T13:35:22.761Z,23.47
2019-03-18T13:37:50.971Z,23.51
2019-03-18T13:40:20.803Z,23.52
2019-03-18T13:42:49.005Z,23.50
2019-03-18T13:45:21.340Z,23.47
2019-03-18T13:47:51.163Z,23.43
2019-03-18T13:50:23.871Z,23.43
2019-03-18T13:52:52.244Z,23.40
2019-03-18T13:55:20.449Z,23.36
2019-03-18T13:57:48.662Z,23.31
2019-03-18T14:00:18.349Z,23.27
2019-03-18T14:02:46.556Z,23.22
2019-03-18T14:05:14.778Z,23.16
2019-03-18T14:07:42.983Z,23.11
2019-03-18T14:10:13.323Z,23.04
2019-03-18T14:12:41.522Z,22.99
2019-03-18T14:15:17.328Z,22.94
2019-03-18T14:17:45.535Z,22.92
2019-03-18T14:20:17.861Z,22.90
2019-03-18T14:22:46.064Z,22.93
2019-03-18T14:25:14.273Z,22.99
2019-03-18T14:27:42.905Z,23.01
2019-03-18T14:30:14.375Z,23.07
2019-03-18T14:32:42.857Z,23.04
2019-03-18T14:35:11.059Z,23.02
2019-03-18T14:37:39.338Z,22.98
2019-03-18T14:40:16.164Z,22.95
2019-03-18T14:42:44.673Z,22.91
2019-03-18T14:45:22.326Z,22.87
2019-03-18T14:47:50.527Z,22.83
2019-03-18T14:50:19.678Z,22.79
2019-03-18T14:52:48.045Z,22.76
2019-03-18T14:55:17.191Z,22.73
2019-03-18T14:57:45.464Z,22.71
2019-03-18T15:00:29.815Z,22.71
2019-03-18T15:02:58.013Z,22.74
2019-03-18T15:05:26.221Z,22.74
2019-03-18T15:07:54.421Z,22.76
2019-03-18T15:10:25.130Z,22.79
2019-03-18T15:12:53.349Z,22.83
2019-03-18T15:15:21.572Z,22.90
2019-03-18T15:17:49.781Z,22.89
2019-03-18T15:20:26.098Z,22.94
2019-03-18T15:22:54.318Z,22.96
2019-03-18T15:25:33.726Z,22.96
2019-03-18T15:28:02.275Z,22.99
2019-03-18T15:30:30.774Z,23.04
2019-03-18T15:32:59.547Z,23.05
2019-03-18T15:35:27.742Z,23.12
2019-03-18T15:37:55.943Z,23.14
2019-03-18T15:40:28.964Z,23.21
2019-03-18T15:42:57.155Z,23.27
2019-03-18T15:45:25.630Z,23.29
2019-03-18T15:47:53.841Z,23.31
2019-03-18T15:50:25.688Z,23.31
2019-03-18T15:52:53.235Z,23.32
2019-03-18T15:55:23.995Z,23.31
2019-03-18T15:57:51.927Z,23.29
2019-03-18T16:00:27.616Z,23.31
2019-03-18T16:02:56.163Z,23.14
2019-03-18T16:05:24.372Z,23.04
2019-03-18T16:07:52.579Z,23.00
2019-03-18T16:10:21.042Z,22.99
2019-03-18T16:12:49.326Z,23.03
2019-03-18T16:15:19.130Z,23.10
2019-03-18T16:17:47.665Z,23.18
2019-03-18T16:20:19.652Z,23.22
2019-03-18T16:22:48.210Z,23.33
2019-03-18T16:25:16.561Z,23.35
2019-03-18T16:27:44.756Z,23.33
2019-03-18T16:30:18.370Z,23.29
2019-03-18T16:32:46.590Z,23.29
2019-03-18T16:35:16.419Z,23.25
2019-03-18T16:37:45.039Z,23.20
2019-03-18T16:40:15.033Z,23.17
2019-03-18T16:42:43.518Z,23.20
2019-03-18T16:45:13.768Z,23.17
2019-03-18T16:47:42.229Z,23.18
2019-03-18T16:50:15.426Z,23.20
2019-03-18T16:52:43.641Z,23.16
2019-03-18T16:55:11.922Z,23.14
2019-03-18T16:57:40.458Z,23.10
2019-03-18T17:00:17.328Z,23.14
2019-03-18T17:02:45.544Z,23.10
2019-03-18T17:05:13.758Z,23.06
2019-03-18T17:07:41.965Z,23.00
2019-03-18T17:10:14.762Z,22.95
2019-03-18T17:12:43.323Z,22.92
2019-03-18T17:15:13.412Z,22.88
2019-03-18T17:17:41.927Z,22.85
2019-03-18T17:20:14.913Z,22.82
2019-03-18T17:22:49.151Z,22.78
2019-03-18T17:25:20.326Z,22.74
2019-03-18T17:27:48.534Z,22.69
2019-03-18T17:30:18.179Z,22.65
2019-03-18T17:32:46.628Z,22.64
2019-03-18T17:35:14.846Z,22.62
2019-03-18T17:37:43.388Z,22.58
2019-03-18T17:40:16.508Z,22.56
2019-03-18T17:42:45.063Z,22.53
2019-03-18T17:45:15.379Z,22.50
2019-03-18T17:47:43.874Z,22.44
2019-03-18T17:50:15.089Z,22.45
2019-03-18T17:52:43.585Z,22.41
2019-03-18T17:55:14.940Z,22.39
2019-03-18T17:57:43.140Z,22.36
2019-03-18T18:00:16.253Z,22.32
2019-03-18T18:02:44.463Z,22.29
2019-03-18T18:05:15.721Z,22.29
2019-03-18T18:07:50.105Z,22.26
2019-03-18T18:10:18.318Z,22.23
2019-03-18T18:12:46.525Z,22.21
2019-03-18T18:15:14.740Z,22.16
2019-03-18T18:17:42.948Z,22.11
2019-03-18T18:20:13.665Z,22.11
2019-03-18T18:22:42.152Z,22.11
2019-03-18T18:25:12.983Z,22.09
2019-03-18T18:27:41.466Z,22.04
2019-03-18T18:30:14.488Z,22.03
2019-03-18T18:32:42.705Z,21.98
2019-03-18T18:35:11.569Z,21.97
2019-03-18T18:37:39.806Z,21.93
2019-03-18T18:40:14.303Z,21.92
2019-03-18T18:42:42.511Z,21.93
2019-03-18T18:45:12.506Z,21.95
2019-03-18T18:47:42.352Z,21.90
2019-03-18T18:50:11.924Z,21.90
2019-03-18T18:52:41.327Z,21.89
2019-03-18T18:55:10.983Z,21.91
2019-03-18T18:57:39.194Z,21.91
2019-03-18T19:00:10.666Z,21.83
2019-03-18T19:02:39.147Z,21.78
2019-03-18T19:05:09.951Z,21.78
2019-03-18T19:07:38.123Z,21.81
2019-03-18T19:10:09.087Z,21.78
2019-03-18T19:12:37.780Z,21.79
2019-03-18T19:15:11.816Z,21.76
2019-03-18T19:17:40.016Z,21.74
2019-03-18T19:20:11.263Z,21.73
2019-03-18T19:22:39.477Z,21.70
2019-03-18T19:25:10.777Z,21.66
2019-03-18T19:27:38.988Z,21.63
2019-03-18T19:30:19.223Z,21.62
2019-03-18T19:32:47.445Z,21.62
2019-03-18T19:35:15.732Z,21.60
2019-03-18T19:37:43.969Z,21.58
2019-03-18T19:40:20.617Z,21.56
2019-03-18T19:42:48.824Z,21.53
2019-03-18T19:45:17.033Z,21.51
2019-03-18T19:47:45.249Z,21.50
2019-03-18T19:50:19.300Z,21.49
2019-03-18T19:52:47.499Z,21.47
2019-03-18T19:55:17.348Z,21.46
2019-03-18T19:57:45.553Z,21.44
2019-03-18T20:00:22.094Z,21.43
2019-03-18T20:02:50.301Z,21.41
2019-03-18T20:05:19.094Z,21.37
2019-03-18T20:07:47.497Z,21.37
2019-03-18T20:10:17.892Z,21.39
2019-03-18T20:12:46.093Z,21.37
2019-03-18T20:15:15.445Z,21.32
2019-03-18T20:17:43.664Z,21.31
2019-03-18T20:20:22.886Z,21.30
2019-03-18T20:22:51.351Z,21.27
2019-03-18T20:25:19.828Z,21.22
2019-03-18T20:27:48.040Z,21.21
2019-03-18T20:30:20.204Z,21.23
2019-03-18T20:32:48.764Z,21.21
2019-03-18T20:35:21.828Z,21.17
2019-03-18T20:37:51.924Z,21.13
2019-03-18T20:40:19.968Z,21.06
2019-03-18T20:42:48.272Z,21.03
2019-03-18T20:45:17.524Z,21.00
2019-03-18T20:47:45.751Z,20.99
2019-03-18T20:50:19.829Z,20.95
2019-03-18T20:52:48.038Z,20.91
2019-03-18T20:55:16.263Z,20.89
2019-03-18T20:57:44.474Z,20.85
2019-03-18T21:00:18.247Z,20.84
2019-03-18T21:02:46.458Z,20.85
2019-03-18T21:05:14.663Z,20.83
2019-03-18T21:07:43.153Z,20.79
2019-03-18T21:10:16.287Z,20.77
2019-03-18T21:12:44.500Z,20.77
2019-03-18T21:15:14.211Z,20.74
2019-03-18T21:17:42.422Z,20.72
2019-03-18T21:20:13.503Z,20.71
2019-03-18T21:22:41.708Z,20.68
2019-03-18T21:25:09.921Z,20.68
2019-03-18T21:27:38.476Z,20.65
2019-03-18T21:30:09.924Z,20.63
2019-03-18T21:32:38.131Z,20.61
2019-03-18T21:35:08.194Z,20.61
2019-03-18T21:37:36.441Z,20.58
2019-03-18T21:40:08.250Z,20.58
2019-03-18T21:42:36.460Z,20.55
2019-03-18T21:45:07.469Z,20.53
2019-03-18T21:47:35.685Z,20.52
2019-03-18T21:50:05.435Z,20.50
2019-03-18T21:52:33.930Z,20.49
2019-03-18T21:55:02.133Z,20.48
2019-03-18T21:57:30.427Z,20.47
2019-03-18T21:59:58.637Z,20.45
2019-03-18T22:02:26.852Z,20.44
2019-03-18T22:04:55.079Z,20.43
2019-03-18T22:07:23.284Z,20.42
2019-03-18T22:09:51.539Z,20.40
2019-03-18T22:12:19.978Z,20.41
2019-03-18T22:14:48.193Z,20.39
2019-03-18T22:17:16.407Z,20.40
2019-03-18T22:19:44.978Z,20.43
2019-03-18T22:22:13.192Z,20.42
2019-03-18T22:24:45.638Z,20.42
2019-03-18T22:27:12.033Z,20.39
2019-03-18T22:29:40.198Z,20.40
2019-03-18T22:32:08.404Z,20.42
2019-03-18T22:34:36.603Z,20.41
2019-03-18T22:37:04.798Z,20.41
2019-03-18T22:39:33.349Z,20.40
2019-03-18T22:42:01.547Z,20.40
2019-03-18T22:44:29.753Z,20.42
2019-03-18T22:46:57.961Z,20.40
2019-03-18T22:49:26.474Z,20.40
2019-03-18T22:51:54.681Z,20.39
2019-03-18T22:54:22.922Z,20.38
2019-03-18T22:56:51.975Z,20.38
2019-03-18T22:59:20.853Z,20.37
2019-03-18T23:01:49.060Z,20.35
2019-03-18T23:04:17.627Z,20.36
2019-03-18T23:06:45.830Z,20.35
2019-03-18T23:09:14.037Z,20.34
2019-03-18T23:11:42.245Z,20.33
2019-03-18T23:14:10.446Z,20.34
2019-03-18T23:16:38.650Z,20.32
2019-03-18T23:19:06.854Z,20.32
2019-03-18T23:21:35.056Z,20.32
2019-03-18T23:24:03.526Z,20.32
2019-03-18T23:26:31.828Z,20.32
2019-03-18T23:29:00.037Z,20.31
2019-03-18T23:31:28.235Z,20.30
2019-03-18T23:33:56.446Z,20.29
2019-03-18T23:36:24.639Z,20.29
2019-03-18T23:38:52.852Z,20.29
2019-03-18T23:41:21.043Z,20.30
2019-03-18T23:43:49.628Z,20.31
2019-03-18T23:46:18.123Z,20.30
2019-03-18T23:48:46.331Z,20.31
2019-03-18T23:51:14.535Z,20.30
2019-03-18T23:53:42.740Z,20.29
2019-03-18T23:56:11.030Z,20.28
2019-03-18T23:58:39.230Z,20.28
